createdAt,value
2023-03-18T00:00:22.768Z,16.51
2023-03-18T00:02:50.487Z,16.44
2023-03-18T00:05:18.640Z,16.42
2023-03-18T00:07:47.741Z,16.39
2023-03-18T00:10:15.398Z,16.38
2023-03-18T00:12:43.955Z,16.36
2023-03-18T00:17:48.793Z,16.34
2023-03-18T00:20:19.223Z,16.33
2023-03-18T00:22:54.438Z,16.34
2023-03-18T00:25:45.938Z,3.26
2023-03-18T00:28:14.165Z,16.27
2023-03-18T00:30:42.761Z,16.28
2023-03-18T00:33:11.584Z,16.28
2023-03-18T00:35:42.168Z,16.30
2023-03-18T00:38:16.150Z,16.33
2023-03-18T00:40:43.588Z,16.34
2023-03-18T00:43:16.629Z,16.36
2023-03-18T00:45:47.139Z,16.37
2023-03-18T00:48:19.034Z,16.35
2023-03-18T00:50:47.420Z,16.32
2023-03-18T00:53:18.160Z,16.29
2023-03-18T00:55:45.714Z,16.29
2023-03-18T00:58:16.763Z,16.30
2023-03-18T01:00:46.025Z,16.32
2023-03-18T01:03:14.365Z,16.31
2023-03-18T01:05:44.153Z,16.31
2023-03-18T01:08:12.767Z,16.31
2023-03-18T01:10:47.288Z,16.33
2023-03-18T01:13:17.861Z,16.34
2023-03-18T01:15:45.672Z,16.35
2023-03-18T01:18:16.910Z,16.35
2023-03-18T01:36:02.383Z,16.11
2023-03-18T01:38:31.091Z,16.13
2023-03-18T01:41:01.374Z,16.14
2023-03-18T01:46:46.718Z,16.08
2023-03-18T01:49:25.851Z,16.06
2023-03-18T01:52:22.708Z,16.01
2023-03-18T01:55:12.127Z,15.95
2023-03-18T01:57:42.165Z,15.91
2023-03-18T02:00:11.655Z,15.89
2023-03-18T02:05:31.639Z,15.79
2023-03-18T02:08:02.709Z,15.75
2023-03-18T02:10:35.313Z,15.72
2023-03-18T02:16:06.541Z,15.60
2023-03-18T02:18:48.973Z,15.53
2023-03-18T02:21:49.001Z,15.45
2023-03-18T02:24:37.654Z,15.39
2023-03-18T02:27:16.121Z,15.34
2023-03-18T02:29:45.118Z,15.28
2023-03-18T02:32:14.974Z,15.24
2023-03-18T02:34:48.311Z,15.17
2023-03-18T02:37:15.889Z,15.11
2023-03-18T02:39:44.030Z,15.04
2023-03-18T02:42:16.144Z,14.98
2023-03-18T02:44:48.034Z,14.92
2023-03-18T02:47:23.768Z,14.84
2023-03-18T02:49:52.342Z,14.78
2023-03-18T02:52:21.448Z,14.74
2023-03-18T02:54:49.200Z,14.68
2023-03-18T02:57:17.668Z,14.65
2023-03-18T02:59:46.045Z,14.62
2023-03-18T03:02:22.043Z,14.57
2023-03-18T03:04:54.110Z,14.52
2023-03-18T03:10:11.876Z,14.43
2023-03-18T03:12:42.893Z,14.39
2023-03-18T03:15:11.064Z,14.34
2023-03-18T03:17:38.690Z,14.32
2023-03-18T03:20:08.463Z,14.31
2023-03-18T03:22:37.395Z,14.27
2023-03-18T03:25:06.432Z,14.24
2023-03-18T03:27:38.347Z,14.22
2023-03-18T03:30:13.067Z,14.22
2023-03-18T03:32:40.914Z,14.21
2023-03-18T03:35:08.634Z,14.20
2023-03-18T03:37:35.973Z,14.21
2023-03-18T03:40:04.948Z,14.23
2023-03-18T03:42:34.503Z,14.27
2023-03-18T03:45:01.716Z,14.29
2023-03-18T03:47:32.800Z,14.30
2023-03-18T03:50:00.401Z,14.32
2023-03-18T03:52:28.965Z,14.34
2023-03-18T03:54:56.785Z,14.35
2023-03-18T03:57:25.028Z,14.39
2023-03-18T04:18:49.115Z,14.43
2023-03-18T04:21:16.834Z,14.47
2023-03-18T04:23:45.122Z,14.54
2023-03-18T04:26:13.451Z,14.58
2023-03-18T04:28:41.667Z,14.63
2023-03-18T04:31:09.631Z,14.65
2023-03-18T04:33:39.988Z,14.69
2023-03-18T04:36:16.544Z,14.70
2023-03-18T04:38:43.445Z,14.70
2023-03-18T04:41:10.689Z,14.70
2023-03-18T04:43:39.108Z,14.70
2023-03-18T04:46:06.124Z,14.70
2023-03-18T04:48:33.577Z,14.69
2023-03-18T04:51:00.883Z,14.71
2023-03-18T04:53:28.573Z,14.73
2023-03-18T04:55:57.604Z,14.75
2023-03-18T04:58:25.535Z,14.76
2023-03-18T05:03:24.105Z,14.77
2023-03-18T05:05:52.677Z,14.77
2023-03-18T05:08:21.219Z,14.77
2023-03-18T05:10:51.710Z,14.76
2023-03-18T05:16:03.754Z,14.73
2023-03-18T05:18:31.772Z,14.71
2023-03-18T05:21:01.392Z,14.70
2023-03-18T05:23:30.158Z,14.68
2023-03-18T05:25:58.149Z,14.65
2023-03-18T05:28:27.658Z,14.65
2023-03-18T05:30:55.802Z,14.61
2023-03-18T05:33:24.155Z,14.58
2023-03-18T05:35:52.155Z,14.55
2023-03-18T05:38:20.238Z,14.54
2023-03-18T05:40:47.402Z,14.52
2023-03-18T05:43:14.931Z,14.50
2023-03-18T05:45:43.042Z,14.49
2023-03-18T05:48:27.651Z,14.45
2023-03-18T05:53:30.801Z,14.39
2023-03-18T05:56:01.708Z,14.39
2023-03-18T05:58:31.795Z,14.38
2023-03-18T06:01:31.765Z,14.35
2023-03-18T06:04:01.066Z,14.35
2023-03-18T06:06:29.457Z,14.37
2023-03-18T06:08:57.581Z,14.39
2023-03-18T06:11:26.188Z,14.45
2023-03-18T06:14:09.358Z,14.53
2023-03-18T06:16:37.712Z,14.64
2023-03-18T06:19:12.252Z,14.76
2023-03-18T06:21:40.954Z,14.87
2023-03-18T06:24:17.896Z,15.08
2023-03-18T06:26:47.977Z,15.29
2023-03-18T06:29:15.483Z,15.53
2023-03-18T06:31:42.917Z,15.83
2023-03-18T06:36:53.612Z,16.64
2023-03-18T06:39:34.421Z,17.16
2023-03-18T06:42:02.496Z,17.76
2023-03-18T06:49:52.880Z,19.79
2023-03-18T06:52:24.445Z,20.45
2023-03-18T06:54:53.963Z,21.03
2023-03-18T07:00:28.524Z,22.37
2023-03-18T07:02:56.330Z,23.02
2023-03-18T07:05:31.980Z,23.77
2023-03-18T07:10:35.198Z,25.44
2023-03-18T07:13:24.209Z,26.29
2023-03-18T07:15:52.439Z,27.16
2023-03-18T07:18:20.549Z,27.95
2023-03-18T07:20:47.407Z,28.67
2023-03-18T07:23:14.835Z,29.31
2023-03-18T07:25:45.038Z,29.94
2023-03-18T07:28:12.228Z,30.51
2023-03-18T07:30:39.574Z,30.51
2023-03-18T07:33:06.501Z,31.36
2023-03-18T07:35:33.564Z,31.68
2023-03-18T07:38:01.632Z,31.96
2023-03-18T07:40:28.404Z,32.24
2023-03-18T07:42:55.571Z,32.44
2023-03-18T07:45:22.330Z,32.52
2023-03-18T07:47:49.306Z,32.47
2023-03-18T07:50:16.426Z,32.31
2023-03-18T07:52:43.393Z,32.14
2023-03-18T07:55:10.820Z,32.01
2023-03-18T07:57:38.486Z,32.10
2023-03-18T08:00:08.552Z,32.44
2023-03-18T08:02:36.097Z,32.96
2023-03-18T08:05:06.882Z,33.55
2023-03-18T08:07:35.544Z,34.10
2023-03-18T08:10:02.767Z,34.49
2023-03-18T08:12:41.441Z,34.87
2023-03-18T08:15:16.184Z,35.16
2023-03-18T08:17:42.940Z,35.23
2023-03-18T08:20:12.251Z,35.21
2023-03-18T08:22:39.017Z,35.09
2023-03-18T08:25:06.272Z,34.85
2023-03-18T08:27:33.103Z,34.45
2023-03-18T08:30:02.978Z,33.90
2023-03-18T08:32:30.665Z,33.44
2023-03-18T08:34:57.802Z,33.14
2023-03-18T08:37:24.728Z,32.95
2023-03-18T08:39:51.529Z,32.86
2023-03-18T08:42:19.066Z,32.84
2023-03-18T08:44:45.830Z,32.87
2023-03-18T08:47:12.949Z,33.03
2023-03-18T08:49:40.110Z,33.26
2023-03-18T08:52:07.124Z,33.52
2023-03-18T08:54:33.879Z,33.60
2023-03-18T08:57:00.642Z,33.55
2023-03-18T08:59:27.374Z,33.48
2023-03-18T09:01:54.110Z,33.46
2023-03-18T09:04:21.157Z,33.53
2023-03-18T09:06:48.989Z,33.76
2023-03-18T09:09:16.670Z,34.20
2023-03-18T09:11:45.574Z,34.71
2023-03-18T09:14:13.312Z,35.38
2023-03-18T09:16:40.738Z,36.13
2023-03-18T09:19:07.701Z,36.79
2023-03-18T09:21:34.449Z,37.34
2023-03-18T09:24:01.521Z,37.85
2023-03-18T09:26:28.298Z,38.33
2023-03-18T09:28:55.114Z,38.71
2023-03-18T09:31:22.006Z,39.01
2023-03-18T09:33:49.270Z,39.26
2023-03-18T09:36:18.085Z,39.41
2023-03-18T09:38:44.953Z,39.55
2023-03-18T09:41:29.707Z,39.30
2023-03-18T09:44:14.033Z,39.20
2023-03-18T09:47:18.656Z,39.22
2023-03-18T09:50:10.754Z,39.16
2023-03-18T09:53:06.556Z,39.20
2023-03-18T09:55:46.492Z,39.30
2023-03-18T09:58:43.982Z,39.25
2023-03-18T10:01:13.626Z,39.34
2023-03-18T10:04:23.539Z,39.44
2023-03-18T10:06:58.181Z,39.67
2023-03-18T10:09:36.187Z,39.91
2023-03-18T10:12:17.955Z,40.23
2023-03-18T10:15:12.120Z,40.40
2023-03-18T10:17:43.408Z,40.54
2023-03-18T10:20:25.970Z,40.46
2023-03-18T10:23:05.392Z,40.48
2023-03-18T10:25:49.206Z,40.60
2023-03-18T10:28:52.210Z,40.72
2023-03-18T10:31:36.464Z,40.89
2023-03-18T10:34:38.695Z,40.91
2023-03-18T10:37:54.441Z,40.56
2023-03-18T10:40:23.794Z,40.02
2023-03-18T10:42:53.902Z,39.35
2023-03-18T10:45:28.133Z,38.58
2023-03-18T10:48:20.129Z,37.62
2023-03-18T10:50:58.972Z,36.66
2023-03-18T10:53:54.649Z,35.65
2023-03-18T10:56:22.205Z,34.72
2023-03-18T10:58:52.248Z,33.81
2023-03-18T11:01:25.072Z,32.97
2023-03-18T11:04:06.615Z,32.20
2023-03-18T11:06:45.087Z,31.62
2023-03-18T11:09:22.193Z,31.13
2023-03-18T11:11:56.190Z,30.67
2023-03-18T11:14:30.287Z,30.27
2023-03-18T11:17:01.442Z,29.93
2023-03-18T11:19:39.149Z,29.58
2023-03-18T11:22:22.710Z,29.22
2023-03-18T11:25:20.070Z,28.68
2023-03-18T11:28:05.638Z,28.36
2023-03-18T11:30:48.321Z,28.15
2023-03-18T11:33:20.089Z,28.11
2023-03-18T11:36:00.562Z,28.16
2023-03-18T11:38:32.956Z,28.28
2023-03-18T11:41:14.377Z,28.38
2023-03-18T11:44:02.005Z,28.38
2023-03-18T11:46:47.626Z,28.36
2023-03-18T11:49:24.611Z,28.31
2023-03-18T11:52:06.561Z,28.23
2023-03-18T11:55:10.725Z,27.94
2023-03-18T11:58:17.460Z,27.56
2023-03-18T12:00:54.166Z,27.28
2023-03-18T12:04:10.641Z,27.02
2023-03-18T12:07:23.951Z,26.75
2023-03-18T12:10:12.869Z,26.57
2023-03-18T12:13:32.578Z,26.38
2023-03-18T12:16:13.077Z,26.24
2023-03-18T12:19:14.838Z,26.06
2023-03-18T12:22:05.807Z,25.89
2023-03-18T12:24:52.418Z,25.76
2023-03-18T12:27:53.484Z,25.55
2023-03-18T12:31:23.706Z,25.31
2023-03-18T12:34:01.353Z,25.15
2023-03-18T12:36:59.605Z,24.92
2023-03-18T12:40:06.237Z,24.72
2023-03-18T12:42:47.809Z,24.48
2023-03-18T12:45:25.170Z,24.30
2023-03-18T12:48:02.359Z,24.11
2023-03-18T12:50:42.958Z,23.81
2023-03-18T12:53:18.431Z,23.52
2023-03-18T12:55:55.380Z,23.27
2023-03-18T12:58:30.967Z,23.09
2023-03-18T13:01:24.307Z,22.95
2023-03-18T13:04:02.781Z,22.89
2023-03-18T13:06:40.661Z,22.83
2023-03-18T13:09:34.572Z,22.75
2023-03-18T13:12:41.559Z,22.70
2023-03-18T13:15:38.082Z,22.67
2023-03-18T13:18:33.504Z,22.64
2023-03-18T13:21:02.425Z,22.68
2023-03-18T13:24:06.174Z,22.70
2023-03-18T13:27:03.691Z,22.76
2023-03-18T13:30:24.771Z,22.88
2023-03-18T13:33:23.985Z,23.01
2023-03-18T13:36:43.510Z,23.14
2023-03-18T13:39:44.020Z,23.26
2023-03-18T13:42:23.714Z,23.45
2023-03-18T13:45:05.247Z,23.67
2023-03-18T13:47:38.522Z,23.90
2023-03-18T13:50:27.285Z,24.10
2023-03-18T13:53:00.046Z,24.28
2023-03-18T13:55:49.788Z,24.44
2023-03-18T13:58:26.065Z,24.54
2023-03-18T14:00:55.530Z,24.56
2023-03-18T14:03:29.934Z,24.55
2023-03-18T14:06:08.812Z,24.54
2023-03-18T14:08:38.446Z,24.57
2023-03-18T14:11:17.415Z,24.55
2023-03-18T14:13:48.295Z,24.52
2023-03-18T14:16:20.370Z,24.44
2023-03-18T14:19:18.109Z,24.40
2023-03-18T14:21:52.830Z,24.37
2023-03-18T14:24:20.641Z,24.41
2023-03-18T14:26:59.639Z,24.45
2023-03-18T14:29:34.785Z,24.49
2023-03-18T14:32:08.401Z,24.48
2023-03-18T14:34:56.478Z,24.44
2023-03-18T14:37:30.685Z,24.42
2023-03-18T14:40:17.672Z,24.36
2023-03-18T14:43:10.306Z,24.22
2023-03-18T14:45:44.669Z,24.09
2023-03-18T14:48:23.361Z,23.96
2023-03-18T14:50:53.742Z,23.85
2023-03-18T14:53:28.612Z,23.76
2023-03-18T14:55:58.771Z,23.66
2023-03-18T14:58:28.265Z,23.60
2023-03-18T15:01:09.876Z,23.50
2023-03-18T15:03:42.387Z,23.37
2023-03-18T15:06:20.198Z,23.23
2023-03-18T15:08:58.877Z,23.11
2023-03-18T15:11:25.763Z,23.07
2023-03-18T15:14:00.133Z,23.09
2023-03-18T15:16:32.939Z,23.11
2023-03-18T15:19:00.224Z,23.13
2023-03-18T15:21:32.397Z,23.13
2023-03-18T15:24:08.394Z,23.13
2023-03-18T15:26:41.321Z,23.14
2023-03-18T15:29:28.137Z,23.10
2023-03-18T15:32:14.867Z,23.10
2023-03-18T15:34:45.894Z,23.07
2023-03-18T15:37:31.686Z,23.06
2023-03-18T15:40:16.095Z,23.05
2023-03-18T15:42:45.892Z,23.06
2023-03-18T15:45:24.597Z,23.08
2023-03-18T15:47:52.076Z,23.11
2023-03-18T15:50:19.031Z,23.15
2023-03-18T15:52:47.505Z,23.16
2023-03-18T15:55:53.265Z,23.09
2023-03-18T15:58:37.759Z,23.04
2023-03-18T16:01:07.914Z,23.01
2023-03-18T16:03:35.597Z,22.95
2023-03-18T16:06:02.997Z,22.86
2023-03-18T16:08:30.451Z,22.75
2023-03-18T16:11:01.714Z,22.67
2023-03-18T16:13:34.468Z,22.60
2023-03-18T16:16:01.515Z,22.50
2023-03-18T16:18:28.351Z,22.42
2023-03-18T16:20:55.180Z,22.35
2023-03-18T16:23:22.064Z,22.24
2023-03-18T16:25:53.152Z,22.14
2023-03-18T16:28:28.173Z,22.04
2023-03-18T16:30:58.420Z,21.95
2023-03-18T16:33:25.312Z,21.86
2023-03-18T16:35:59.411Z,21.79
2023-03-18T16:38:28.483Z,21.72
2023-03-18T16:40:55.992Z,21.61
2023-03-18T16:43:27.210Z,21.51
2023-03-18T16:46:01.118Z,21.38
2023-03-18T16:48:28.559Z,21.27
2023-03-18T16:50:57.395Z,21.16
2023-03-18T16:53:30.347Z,21.08
2023-03-18T16:56:01.801Z,20.96
2023-03-18T16:58:35.391Z,20.84
2023-03-18T17:01:07.260Z,20.78
2023-03-18T17:03:37.374Z,20.70
2023-03-18T17:06:06.444Z,20.64
2023-03-18T17:08:34.026Z,20.55
2023-03-18T17:11:03.847Z,20.48
2023-03-18T17:13:34.890Z,20.45
2023-03-18T17:16:01.771Z,20.38
2023-03-18T17:18:28.619Z,20.32
2023-03-18T17:20:55.458Z,20.26
2023-03-18T17:23:27.279Z,20.22
2023-03-18T17:26:00.403Z,20.15
2023-03-18T17:28:49.327Z,20.05
2023-03-18T17:31:16.858Z,20.00
2023-03-18T17:33:44.856Z,19.94
2023-03-18T17:36:13.132Z,19.88
2023-03-18T17:38:40.599Z,19.81
2023-03-18T17:41:37.698Z,19.73
2023-03-18T17:44:37.338Z,19.59
2023-03-18T17:47:04.964Z,19.47
2023-03-18T17:49:39.097Z,19.37
2023-03-18T17:52:11.795Z,19.27
2023-03-18T17:54:40.233Z,19.18
2023-03-18T17:57:27.851Z,19.10
2023-03-18T17:59:56.017Z,19.01
2023-03-18T18:02:24.680Z,18.94
2023-03-18T18:04:52.890Z,18.87
2023-03-18T18:07:22.637Z,18.78
2023-03-18T18:09:50.294Z,18.69
2023-03-18T18:12:26.847Z,18.63
2023-03-18T18:14:58.482Z,18.55
2023-03-18T18:17:26.150Z,18.49
2023-03-18T18:19:58.004Z,18.43
2023-03-18T18:22:26.922Z,18.37
2023-03-18T18:24:57.992Z,18.32
2023-03-18T18:27:24.794Z,18.25
2023-03-18T18:29:52.850Z,18.21
2023-03-18T18:32:21.791Z,18.15
2023-03-18T18:34:48.996Z,18.08
2023-03-18T18:37:15.689Z,18.03
2023-03-18T18:39:43.547Z,18.00
2023-03-18T18:42:12.195Z,17.98
2023-03-18T18:44:38.985Z,17.94
2023-03-18T18:47:18.888Z,17.92
2023-03-18T18:49:46.833Z,17.89
2023-03-18T18:52:13.967Z,17.86
2023-03-18T18:54:41.778Z,17.83
2023-03-18T18:57:28.243Z,17.77
2023-03-18T18:59:55.828Z,17.74
2023-03-18T19:02:40.586Z,17.69
2023-03-18T19:05:08.099Z,17.64
2023-03-18T19:07:36.333Z,17.60
2023-03-18T19:10:03.843Z,17.55
2023-03-18T19:12:30.587Z,17.52
2023-03-18T19:14:57.572Z,17.52
2023-03-18T19:17:24.521Z,17.49
2023-03-18T19:19:52.940Z,17.48
2023-03-18T19:22:21.378Z,17.47
2023-03-18T19:24:49.934Z,17.46
2023-03-18T19:27:32.236Z,17.44
2023-03-18T19:30:04.773Z,17.42
2023-03-18T19:32:31.558Z,17.41
2023-03-18T19:34:58.308Z,17.41
2023-03-18T19:37:32.310Z,17.41
2023-03-18T19:40:03.800Z,17.41
2023-03-18T19:42:30.676Z,17.40
2023-03-18T19:44:57.535Z,17.41
2023-03-18T19:47:29.166Z,17.41
2023-03-18T19:49:56.052Z,17.38
2023-03-18T19:52:27.089Z,17.39
2023-03-18T19:54:55.027Z,17.35
2023-03-18T19:57:31.214Z,17.34
2023-03-18T20:00:00.913Z,17.34
2023-03-18T20:02:31.825Z,17.32
2023-03-18T20:05:02.599Z,17.32
2023-03-18T20:07:34.563Z,17.29
2023-03-18T20:10:01.448Z,17.27
2023-03-18T20:12:38.963Z,17.27
2023-03-18T20:15:13.015Z,17.25
2023-03-18T20:17:43.379Z,17.22
2023-03-18T20:20:24.065Z,17.20
2023-03-18T20:22:57.513Z,17.20
2023-03-18T20:25:41.312Z,17.21
2023-03-18T20:28:15.999Z,17.21
2023-03-18T20:30:44.297Z,17.20
2023-03-18T20:33:11.742Z,17.21
2023-03-18T20:35:43.507Z,17.23
2023-03-18T20:38:36.617Z,17.23
2023-03-18T20:41:03.924Z,17.22
2023-03-18T20:43:31.323Z,17.23
2023-03-18T20:46:01.875Z,17.25
2023-03-18T20:48:28.678Z,17.24
2023-03-18T20:50:55.929Z,17.24
2023-03-18T20:53:27.279Z,17.22
2023-03-18T20:55:54.187Z,17.18
2023-03-18T20:58:26.174Z,17.16
2023-03-18T21:00:53.771Z,17.15
2023-03-18T21:03:33.394Z,17.14
2023-03-18T21:06:03.725Z,17.12
2023-03-18T21:08:31.950Z,17.12
2023-03-18T21:11:02.105Z,17.13
2023-03-18T21:13:38.614Z,17.14
2023-03-18T21:16:12.994Z,17.13
2023-03-18T21:18:41.828Z,17.12
2023-03-18T21:21:34.012Z,17.09
2023-03-18T21:24:01.078Z,17.06
2023-03-18T21:26:28.395Z,17.06
2023-03-18T21:28:55.251Z,17.05
2023-03-18T21:31:33.061Z,17.04
2023-03-18T21:34:00.981Z,17.01
2023-03-18T21:36:28.022Z,16.99
2023-03-18T21:38:54.765Z,16.97
2023-03-18T21:41:29.995Z,16.96
2023-03-18T21:43:57.070Z,16.94
2023-03-18T21:46:26.866Z,16.92
2023-03-18T21:48:53.936Z,16.93
2023-03-18T21:51:39.182Z,16.91
2023-03-18T21:54:18.681Z,16.86
2023-03-18T21:56:45.522Z,16.84
2023-03-18T21:59:12.239Z,16.82
2023-03-18T22:01:39.195Z,16.78
2023-03-18T22:04:06.168Z,16.74
2023-03-18T22:06:33.929Z,16.68
2023-03-18T22:09:00.810Z,16.61
2023-03-18T22:11:28.157Z,16.52
2023-03-18T22:15:10.115Z,16.40
2023-03-18T22:17:39.087Z,16.26
2023-03-18T22:20:07.237Z,16.21
2023-03-18T22:22:37.216Z,16.19
2023-03-18T22:25:05.076Z,16.13
2023-03-18T22:27:32.749Z,16.08
2023-03-18T22:30:01.044Z,16.01
2023-03-18T22:32:43.497Z,15.94
2023-03-18T22:35:23.415Z,15.85
2023-03-18T22:37:51.876Z,15.77
2023-03-18T22:40:27.262Z,15.71
2023-03-18T22:43:00.674Z,15.64
2023-03-18T22:45:34.246Z,15.59
2023-03-18T22:48:07.604Z,15.51
2023-03-18T22:50:36.009Z,15.47
2023-03-18T22:53:08.335Z,15.46
2023-03-18T22:55:41.565Z,15.43
2023-03-18T22:58:20.628Z,15.40
2023-03-18T23:00:49.378Z,15.39
2023-03-18T23:03:34.165Z,15.35
2023-03-18T23:06:03.799Z,15.30
2023-03-18T23:08:32.583Z,15.27
2023-03-18T23:11:02.539Z,15.21
2023-03-18T23:13:35.959Z,15.18
2023-03-18T23:16:11.693Z,15.15
2023-03-18T23:18:40.080Z,15.11
2023-03-18T23:21:07.482Z,15.08
2023-03-18T23:23:35.785Z,15.07
2023-03-18T23:26:07.360Z,15.06
2023-03-18T23:28:44.394Z,15.06
2023-03-18T23:31:14.411Z,15.04
2023-03-18T23:33:42.058Z,15.03
2023-03-18T23:36:10.919Z,15.02
2023-03-18T23:38:40.119Z,15.00
2023-03-18T23:41:08.227Z,14.96
2023-03-18T23:43:35.490Z,14.93
2023-03-18T23:46:03.948Z,14.90
2023-03-18T23:48:31.633Z,14.87
2023-03-18T23:50:58.879Z,14.84
2023-03-18T23:53:26.443Z,14.82
2023-03-18T23:55:53.768Z,14.79
2023-03-18T23:58:28.599Z,14.76
